Flight Track Log - Related Links

Times and Time Zones

All times are in EDT time to prevent confusion due to time zone crossing. See the SWA1910 flight status page for this flight to view local times or setup timezone preferences in your user account.

Time Position Orientation Groundspeed Altitude Reporting Facility
EDT Latitude Longitude Course Direction KTS MPH feet Rate Location/Type
Wed 05:48:57 PM 42.9311 -78.6181 105° East 207 238 6,100  Level Cleveland Center
Wed 05:49:57 PM 42.8519 -78.6150 178° South 231 266 9,700 3,200 Climbing Cleveland Center
Wed 05:50:57 PM 42.7739 -78.5664 155° Southeast 254 292 12,500 3,250 Climbing Cleveland Center
Wed 05:51:57 PM 42.6872 -78.4872 146° Southeast 325 374 16,200 3,450 Climbing Cleveland Center
Wed 05:52:57 PM 42.5961 -78.4058 147° Southeast 368 423 19,400 3,150 Climbing Cleveland Center
Wed 05:53:57 PM 42.5028 -78.3272 148° Southeast 393 452 22,500 2,800 Climbing Cleveland Center
Wed 05:54:57 PM 42.4094 -78.2464 147° Southeast 398 458 25,000 1,250 Climbing Cleveland Center
Wed 05:55:57 PM 42.3097 -78.1600 147° Southeast 405 466 25,000  Level Cleveland Center
Wed 05:56:57 PM 42.1908 -78.0581 148° Southeast 444 511 25,000  Level Cleveland Center
Wed 05:57:57 PM 42.0867 -77.9669 147° Southeast 444 511 25,000  Level Cleveland Center
Wed 05:58:57 PM 41.9844 -77.8789 147° Southeast 444 511 25,000  Level Cleveland Center
Wed 06:00:29 PM 41.8392 -77.7506 147° Southeast 445 512 25,000  Level New York Center
Wed 06:01:29 PM 41.7408 -77.6486 142° Southeast 451 519 25,000  Level New York Center
Wed 06:02:30 PM 41.6425 -77.5469 142° Southeast 451 519 25,000  Level New York Center
Wed 06:03:30 PM 41.5464 -77.4428 141° Southeast 451 519 25,000  Level New York Center
Wed 06:04:29 PM 41.4358 -77.3350 144° Southeast 451 519 25,000 -403 Level New York Center
Wed 06:05:29 PM 41.3417 -77.2264 139° Southeast 451 519 24,200 -496 Descending New York Center
Wed 06:06:30 PM 41.2542 -77.1103 135° Southeast 451 519 24,000 -500 Descending New York Center
Wed 06:08:29 PM 41.0908 -76.8886 134° Southeast 446 513 22,700 -767 Descending New York Center
Wed 06:09:30 PM 41.0072 -76.7736 134° Southeast 441 507 21,700 -1,050 Descending New York Center
Wed 06:10:29 PM 40.9233 -76.6564 133° Southeast 441 507 20,600 -1,169 Descending New York Center
Wed 06:11:28 PM 40.8433 -76.5481 134° Southeast 436 502 19,400 -1,815 Descending New York Center
Wed 06:12:28 PM 40.7553 -76.4283 134° Southeast 423 487 17,000 -1,934 Descending New York Center
Wed 06:13:29 PM 40.6700 -76.3364 141° Southeast 412 474 15,500 -1,000 Descending New York Center
Wed 06:14:28 PM 40.5736 -76.3039 166° South 372 428 15,000 -198 Descending New York Center
Wed 06:15:30 PM 40.4842 -76.3022 179° South 356 410 15,100  Climbing New York Center
Wed 06:16:30 PM 40.3747 -76.3208 187° South 362 417 15,000 -51 Descending New York Center
Wed 06:17:28 PM 40.2797 -76.3458 191° South 362 417 15,000  Level New York Center
Wed 06:18:28 PM 40.1828 -76.3733 192° South 362 417 15,000 -640 Level New York Center
Wed 06:20:26 PM 39.9833 -76.4333 193° South 361 415 13,100 -876 Descending Potomac TRACON
Wed 06:21:26 PM 39.9000 -76.4667 197° South 334 384 12,400 -545 Descending Potomac TRACON
Wed 06:22:27 PM 39.8167 -76.4833 189° South 297 342 12,000 -694 Descending Potomac TRACON
Wed 06:23:27 PM 39.7333 -76.5000 189° South 304 350 11,000 -1,053 Descending Potomac TRACON
Wed 06:24:21 PM 39.6667 -76.5333 201° Southwest 292 336 10,000 -1,150 Descending Potomac TRACON
Wed 06:25:27 PM 39.5667 -76.5500 187° South 286 329 8,700 -1,238 Descending Potomac TRACON
Wed 06:26:27 PM 39.5000 -76.5833 201° Southwest 279 321 7,400 -1,350 Descending Potomac TRACON
Wed 06:27:27 PM 39.4167 -76.6000 189° South 271 312 6,000 -1,263 Descending Potomac TRACON
Wed 06:28:21 PM 39.3667 -76.5500 142° Southeast 278 320 5,000 -522 Descending Potomac TRACON
Wed 06:29:22 PM 39.3167 -76.4833 134° Southeast 271 312 5,000 -496 Level Potomac TRACON
Wed 06:30:22 PM 39.2500 -76.4333 150° Southeast 268 308 4,000 -1,000 Descending Potomac TRACON
Wed 06:31:22 PM 39.1833 -76.4333 180° South 244 281 3,000 -887 Descending Potomac TRACON
Wed 06:32:17 PM 39.1333 -76.4833 218° Southwest 223 257 2,300 -626 Descending Potomac TRACON
Wed 06:33:17 PM 39.1167 -76.5500 252° West 194 223 1,800 -450 Descending Potomac TRACON
Wed 06:34:17 PM 39.1167 -76.6167 270° West 170 196 1,400 -567 Descending Potomac TRACON
Wed 06:35:24 PM 39.1500 -76.6500 322° Northwest 155 178 600 -716 Descending Potomac TRACON

Login

Don't have an account? Register now (free) for customized features, flight alerts, and more!